Beta Version
تعنى (نشرة براءات الاختراع) التي يصدرها مكتب براءات الاختراع لمجلس التعاون لدول الخليج العربية بنشر الإشهارات المنصوص عليها في نظام براءات الاختراع لدول مجلس التعاون ولائحته التنفيذيه والتي تمثلها البيانات والمعلومات بشأن مايطرا على طلبات براءات الاختراع وبراءات الاختراع لدى المكتب خلال فترة النشرة ليغطي أنشطة المكتب المتعلقة بالطلبات والبراءات خلال هذه الفترة




Granted Patents


NoDepositNoTitlePatent NoGrant DateDocument
1 GC 2012-21156 APPARATUS AND METHOD FOR MULTI-COMPONENT WELLBORE ELECTRIC FIELD MEASUREMENTS USING CAPACITIVE SENSORS GC0005778 2017/07/09 HTML
2 GC 2012-21274 PRECIPITATED CALCIUM CARBONATE FROM PULP MILL WASTE HAVING AN IMPROVED BRIGHTNESS, METHOD FOR THE PRODUCTION AND USE THEREOF GC0005779 2017/07/09 HTML
3 م ت خ/ب/2009/14828 MAINTENANCE DEVICE, AND METHOD FOR INTRODUCING A MAINTENANCE TOOL INTO AN ELONGATED HOLLOW BODY GC0005780 2017/07/09 HTML
4 GC 2010-16545 ACTIVATING COMPOSITIONS IN SUBTERRANEAN ZONES GC0005781 2017/07/09 HTML
5 GC 2012-21899 INTEGRATED SELECTIVE HYDROCRACKING AND FLUID CATALYTIC CRACKING PROCESS GC0005782 2017/07/09 HTML
6 GC 2011-18481 METHOD FOR PRODUCING A FLAT MATERIAL LAYER COMPOSITE AND A FLAT MATERIAL LAYER COMPOSITE GC0005783 2017/07/09 HTML
7 GC 2012-22322 A SYSTEM TO ACCESS A PASSENGER COMPARTMENT GC0005784 2017/07/09 HTML
8 GC 2012-21168 ELECTRODE FOR ELECTROLYTIC PROCESSES AND METHOD OF MANUFACTURING THEREOF GC0005785 2017/07/09 HTML
9 GC 2012-20214 FLOW PROFILE MODELING FOR WELLS GC0005786 2017/07/09 HTML
10 GC 2011-18472 METHOD AND APPARATUS FOR MONITORING AND RESTORING ELECTRICAL PROPERTIES OF POLYMERIZATION REACTOR WALL FILM GC0005787 2017/07/09 HTML
11 م ت خ/ب/2007/8569 WIRELINE SLIP HANGING BYPASS ASSEMBLY AND METHOD GC0005788 2017/07/09 HTML
12 GC 2012-20523 ANNULUS MOUNTED POTENTIAL ENERGY DRIVEN SETTING TOOL GC0005789 2017/07/09 HTML
13 GC 2012-22390 PERMEABLE ELECTRIC HEATING RESISTOR FILM FOR VAPORIZING LIQUIDS FROM DISPOSABLE MOUTHPIECES HAVING VAPORIZER MEMBRANES GC0005790 2017/07/09 HTML
14 GC 2013-24871 PROCESS FOR PRODUCING CUMENE GC0005791 2017/07/09 HTML
15 GC 2013-25287 ALKOXY PYRAZOLES AS SOLUBLE GUANYLATE CYCLASE ACTIVATORS GC0005792 2017/07/09 HTML
16 GC 2012-22622 METHOD OF MAKING CONTROLLED RELEASE FERTILIZER PARTICLES GC0005793 2017/07/09 HTML
17 GC 2011-18448 SYSTEM VALIDATION GC0005794 2017/07/09 HTML
18 GC 2012-21193 COUPLING FOR CONNECTING TUBULAR ELEMENTS FOR BOTTOM-HOLE ASSEMBLIES GC0005795 2017/07/09 HTML
19 GC 2012-20493 DISPOSABLE WEARING ARTICLE GC0005796 2017/07/09 HTML
20 GC 2010-16185 DUAL METALLOCENE CATALYST SYSTEMS FOR DECREASING MELT INDEX AND INCREASING POLYMER PRODUCTION RATES GC0005797 2017/07/09 HTML
21 GC 2012-22866 METHOD AND A SYSTEM FOR COMBINED HYDROGEN AND ELECTRICITY PRODUCTION USING PETROLEUM FUELS GC0005798 2017/07/09 HTML
22 GC 2013-25886 TRANSFER LINE EXCHANGER GC0005799 2017/07/09 HTML
23 GC 2011-18816 FUSED HETEROCYCLIC DERIVATIVES AS S1P MODULATORS GC0005800 2017/07/09 HTML
24 م ت خ/ب/2008/11902 STAPHYLOKINASE VARIANT GC0005801 2017/07/09 HTML
25 م ت خ/ب/2008/12212 CROSSLINKABLE BLEND FOR THE PRODUCTION OF A LAYERED ARTICLE GC0005802 2017/07/09 HTML
26 GC 2012-22958 SYSTEM AND METHOD FOR FLEXIBLE AND EFFICIENT SIMULATION OF VARYING FRACTURE DENSITY IN A RESERVOIR SIMULATOR GC0005803 2017/07/09 HTML
27 GC 2015-29559 SYSTEM AND METHOD FOR TRAFFIC SIGNAL TIMING ESTIMATION GC0005804 2017/07/09 HTML
28 GC 2011-17978 PROCESS FOR REDUCING THE PRESSURE FOR INJECTING A POLYMER SOLUTION INTO AN OIL WELL WITHOUT SHEAR ON SAID SOLUTION. GC0005805 2017/07/09 HTML
29 GC 2012-21765 SEISMIC GEOPHYSICAL SURVEYING GC0005806 2017/07/09 HTML
30 GC 2012-22724 DRILL BIT FOR PERFORMING ELECTROMAGNETIC MEASUREMENTS IN A SUBTERRANEAN FORMATION GC0005807 2017/07/09 HTML
31 م ت خ/ب/2008/12382 DOWNHOLE IMAGING TOOL UTILIZING X-RAY GENERATOR GC0005808 2017/07/09 HTML
32 م ت خ/ب/2009/13317 SYSTEM AND METHOD FOR DEPLOYING OPTICAL FIBER GC0005809 2017/07/09 HTML
33 GC 2011-18635 POLYMERIZATION PROCESS WITH IN-SITU INITIATOR FORMATION GC0005810 2017/07/09 HTML
34 GC 2012-22072 CABLE COMPRISING A SILANE CROSSLINKABLE POLYMER COMPOSITION GC0005811 2017/07/09 HTML
35 GC 2013-23354 INHALATION DEVICE FOR POWDERED DRUGS GC0005812 2017/07/09 HTML
36 GC 2013-25252 A CONDUCTIVE JACKET GC0005813 2017/07/09 HTML
37 GC 2012-21546 CHEMICALLY TREATED CURRENT COLLECTOR FOIL MADE OF ALUMINIUM OR AN ALUMINIUM ALLOY GC0005814 2017/07/09 HTML
38 GC 2012-21861 METHOD AND SYSTEM OF CORRELATING A MEASURED LOG TO A PREDICTED LOG GC0005815 2017/07/09 HTML
39 GC 2012-22893 ELECTRIC-MOTOR DRIVING SYSTEM AND ELECTRIC-MOTOR DRIVING METHOD GC0005816 2017/07/09 HTML
40 GC 2012-20444 SUCTION HEAD FOR A DREDGING VESSEL AND METHOD FOR DREDGING USING SAID SUCTION HEAD GC0005817 2017/07/09 HTML
41 GC 2012-20258 CONTACT TRAY AND METHOD EMPLOYING SAME GC0005818 2017/07/09 HTML
42 GC 2013-25772 ASPHALTENE EVALUATION BASED ON NMR MEASUREMENTS AND TEMPERATURE / PRESSURE CYCLING GC0005819 2017/07/09 HTML
43 GC 2012-20961 SEISMIC INTERFEROMETRY FOR GROUND ROLL & NOISE ATTENUATION GC0005820 2017/07/09 HTML
44 م ت خ/ب/2009/13306 FLEXIBLE STABILIZING STRIP INTENDED TO BE USED IN REINFORCED SOIL CONSTRUCTIONS GC0005821 2017/07/09 HTML
45 GC 2011-19595 DUAL PHASE CATALYSTS SYSTEM FOR MIXED OLEFIN HYDRATIONS GC0005822 2017/07/09 HTML
46 GC 2012-22891 FIBERGLASS PIPE JOINTING METHODS AND SYSTEMS GC0005823 2017/07/09 HTML
47 GC 2011-18629 GRINDING AID GC0005824 2017/07/09 HTML
48 م ت خ/ب/2008/11937 1,3,5-TRISUBSTITUTED TRIAZOLE DERIVATIVE GC0005825 2017/07/09 HTML
49 GC 2011-17606 MIXING SYSTEM COMPRISING AN EXTENSIONAL FLOW MIXER GC0005826 2017/07/09 HTML
50 GC 2013-24797 SYSTEM AND METHOD FOR SERVICING A WELLBORE GC0005827 2017/07/09 HTML
51 م ت خ/ب/2006/6225 PRODUCTION OF ETHYLENE OXIDE GC0005828 2017/07/09 HTML
52 م ت خ/ب/2007/9865 HIGH SHRINK POLYPROPYLENE FILMS GC0005829 2017/07/09 HTML
53 GC 2013-23546 PROCESS FOR PRODUCING AMMONIA SYNTHESIS GAS AND A RELATED FRONT-END OF AN AMMONIA PLANT GC0005830 2017/07/09 HTML
54 GC 2013-24039 PRESSURE ACTIVATED CONTINGENCY RELEASE SYSTEM AND METHOD GC0005831 2017/07/09 HTML
55 GC 2010-17352 CATALYST USABLE IN HYDROTREATMENT COMPRISING GROUPS VIII AND VIB METALS AND PREPARATION WITH ACETIC ACID AND CI-C4 DIALKYL SUCCINATE GC0005832 2017/07/09 HTML
56 GC 2011-19017 PIPELINE ISOLATION GC0005833 2017/07/09 HTML
57 م ت خ/ب/2008/10376 FLUE GAS COOLING AND CLEANING SYSTEM GC0005834 2017/07/09 HTML
58 GC 2013-24061 METHOD AND APPARATUS FOR GENERATING SEISMIC PULSES TO MAP SUBTERRANEAN FRACTURES GC0005835 2017/07/09 HTML
59 GC 2013-23391 FLUOROMETHYL-5,6-DIHYDRO-4H-[1,3]OXAZINES GC0005836 2017/07/09 HTML
60 م ت خ/ب/2009/14654 RELIABLE BROADCAST DELIVERY OF COMMUNICATIONS IN LAND-BASED SEISMIC SURVEYING GC0005837 2017/07/09 HTML
61 م ت خ/ب/2004/3251 COMPOSITION FOR THE PROTECTION OF A SHAPED ARTICLE AGAINST CORROSION GC0005838 2017/07/09 HTML
62 م ت خ/ب/2007/9191 CATALYTIC WET OXIDATION SYSTEMS AND METHODS GC0005839 2017/07/09 HTML
63 م ت خ/ب/2008/11128 REACTION ZONE COMPRISING TWO RISERS IN PARALLEL AND A COMMON GAS-SOLID SEPARATION ZONE, FOR THE PRODUCTION OF ‎PROPYLENE GC0005840 2017/07/09 HTML
64 GC 2012-22224 FORMATION PROPERTY DETERMINATION APPARATUS, METHODS, AND SYSTEMS GC0005841 2017/07/09 HTML
65 GC 2012-20434 IMPROVING TEREPHTHALIC ACID PURGE FILTRATION RATE BY CONTROLLING % WATER IN FILTER FEED SLURRY GC0005842 2017/07/10 HTML
66 GC 2011-17998 SAND PRODUCTION CONTROL THROUGH THE USE OF MAGNETIC FORCES GC0005843 2017/07/10 HTML
67 م ت خ/ب/2008/11637 ARTIFICIAL NEURAL NETWORK MODELS FOR DETERMINING RELATIVE PERMEABILITY OF HYDROCARBON RESERVOIRS GC0005844 2017/07/10 HTML
68 م ت خ/ب/2008/9798 POLYMORPHS OF A mGluR5 RECEPTOR ANTAGONIST GC0005845 2017/07/10 HTML
69 GC 2013-24710 DRILL STEM ELEMENT WITH FLUID ACTIVATION ZONE GC0005847 2017/07/10 HTML
70 م ت خ/ب/2009/12844 CARRIER ASSEMBLY FOR A PIPE CONVEYED WELL LOGGING ASSEMBLY GC0005848 2017/07/10 HTML
71 م ت خ/ب/2009/14755 EFFICIENTWATER FILTRATION PROCESS USING ULTRASOUND AND ONLY FILTRATING A SMALL FRACTION OF THE TOTAL WATER VOLUME GC0005849 2017/07/10 HTML
72 GC 2011-29601 VOLCANIC ASH-BASED DRILLING MUD TO OVERCOME DRILLING CHALLENGES GC0005850 2017/07/10 HTML
73 GC 2012-20640 METHOD AND SYSTEM FOR WELL AND RESERVOIR MANAGEMENT IN OPEN HOLE COMPLETIONS AS WELL AS METHOD AND SYSTEM FOR PRODUCING CRUDE OIL GC0005851 2017/07/10 HTML
74 GC 2013-23476 MILD HYDRODESULFURIZATION INTEGRATING GAS PHASECATALYTIC OXIDATION TO PRODUCE FUELS HAVING AN ULTRA-LOW LEVEL OF ORGANOSULFUR COMPOUNDS GC0005852 2017/07/10 HTML
75 GC 2013-23660 APPARATUS AND METHOD FOR SUBJECTING WEB TO ULTRASONIC PROCESSING GC0005853 2017/07/10 HTML
76 GC 2013-24772 FLUID EXCLUDER FOR LOGGING IN WATER BASED MUDS GC0005854 2017/07/10 HTML
77 GC 2010-16751 NOVEL NPR-B AGONISTS GC0005855 2017/07/10 HTML
78 م ت خ/ب/2008/12189 MULTIPLE IMAGE COLLECTION AND SYNTHESIS FOR PERSONNEL SCREENING GC0005856 2017/07/10 HTML
79 GC 2013-23385 NEW INDOLIZINE COMPOUNDS, A PROCESS FOR THEIR PREPARATION AND PHARMACEUTICAL COMPOSITIONS CONTAINING THEM GC0005857 2017/07/10 HTML
80 م ت خ/ب/2009/13543 PRODUCTION OF ETHYLENICALLY UNSATURATED ACIDS OR ESTERS THEREOF GC0005858 2017/07/10 HTML
81 GC 2013-23786 SET-DELAYED CEMENT COMPOSITIONS COMPRISING PUMICE AND ASSOCIATED METHODS GC0005859 2017/07/10 HTML
82 GC 2012-20203 NEW PROCESS FOR THE SYNTHESIS OF AGOMELATINE GC0005860 2017/07/10 HTML
83 GC 2012-20858 SAFETY SYSTEM FOR AUTONOMOUS DOWNHOLE TOOL GC0005861 2017/07/10 HTML
84 GC 2010-15171 APPARATUS, METHOD AND COMPUTER PROGRAM FOR MANIPULATING AN AUDIO SIGNAL COMPRISING A TRANSIENT EVENT GC0005862 2017/07/10 HTML
85 م ت خ/ب/2009/14837 PROCEDURE AND APPARATUS FOR THE PRODUCTION OF CONTAINERLIKE LAMINATE PACKAGES GC0005863 2017/07/10 HTML
86 GC 2012-23020 CATALYSTS HAVING MODIFIED CATALYST SUPPORTS BASED ON COMPOUNDS OF METALS INCLUDING AL, SI, TI, MG, ZR AND ZN GC0005864 2017/07/10 HTML
87 GC 2013-23414 APOPTOSIS SIGNAL-REGULATING KINASE INHIBITOR GC0005865 2017/07/10 HTML
88 GC 2010-17188 CONNECTOR CLIP GC0005866 2017/07/10 HTML
89 GC 2013-23905 METHOD FOR DETERMINING MINERALOGICAL COMPOSITION GC0005867 2017/07/10 HTML
90 GC 2011-17520 APPARATUS & PROCESS FOR TREATING NATURAL GAS GC0005868 2017/07/10 HTML
91 GC 2011-18844 METHODS TO ESTIMATE DOWNHOLE DRILLING VIBRATION AMPLITUDE FROM SURFACE MEASUREMENT GC0005869 2017/07/10 HTML
92 م ت خ/ب/2008/21971 ETHYLENE-BASED POLYMER COMPOSITIONS, METHODS OF MAKING THE SAME, AND ARTICLES PREPARED FROM THE SAME GC0005870 2017/07/10 HTML
93 GC 2012-22897 ACOUSTIC IMAGING GC0005871 2017/07/10 HTML
94 GC 2012-22265 ELECTRODIALYSIS METHOD AND APPARATUS FOR PASSIVATING SCALING SPECIES GC0005872 2017/07/10 HTML
95 م ت خ/ب/2007/19322 COMPOUNDS WITH COMBINED SERT, 5-HT3 AND 5-HT1A ACTIVITY GC0005873 2017/07/10 HTML
96 GC 2012-20752 ACOUSTIC SIGNAL PROCESSING USING MODEL-BASED ADAPTIVE FILTERING GC0005874 2017/07/10 HTML
97 GC 2010-17078 A COMPOSITION USEFUL IN THE HYDROPROCESSING OF A HYDROCARBON FEEDSTOCK GC0005875 2017/07/10 HTML
98 GC 2010-17187 METHOD FOR PRODUCING ETHYLENE CARBONATE AND ETHYLENE GLYCOL GC0005876 2017/07/10 HTML
99 GC 2012-23227 DEVICE FOR MEASURING AN INTERNAL OR EXTERNAL PROFILE OF A TUBULAR COMPONENT GC0005877 2017/07/10 HTML
100 GC 2012-21003 POLYAMIDE-SHEATHED STRUCTURAL STEEL TUBES FOR OFFSHORE STRUCTURES GC0005878 2017/07/10 HTML
101 GC 2012-22348 PIPELINE BUNDLING ASSEMBLY, MOULD ASSEMBLY, AND METHOD FOR BUNDLED PLACEMENT OF PIPELINES GC0005879 2017/07/10 HTML
102 GC 2013-24955 ELEVATOR CAR GC0005880 2017/07/10 HTML
103 GC 2010-29035 CATALYST FOR METATHESIS OF ETHYLENE AND 2-BUTENE AND / OR DOUBLE BOND ISOMERIZATION GC0005881 2017/07/10 HTML
104 GC 2011-20186 METHOD AND APPARATUS FOR COMPLETING A MULTI-STAGE WELL GC0005882 2017/07/10 HTML
105 GC 2011-18043 PREVENTING OR REDUCING SCALE IN WET-PROCESS PHOSPHORIC ACID PRODUCTION GC0005883 2017/07/10 HTML
106 GC 2012-20821 BISFLUOROALKYL-1,4-BENZODIAZEPINONE COMPOUNDS GC0005884 2017/07/10 HTML
107 GC 2012-22563 FLUID-ABSORBENT ARTICLE GC0005885 2017/07/10 HTML
108 GC 2013-25122 BEVERAGE CONTAINER WITH IMPROVED PUNCTURE POSSIBILITY GC0005886 2017/07/10 HTML
109 م ت خ/ب/2009/14555 THERMALLY INSULATED DIE PLATE ASSEMBLY FOR UNDERWATER PELLETIZING AND THE LIKE GC0005887 2017/07/10 HTML
110 م ت خ/ب/2008/12361 PROCESS FOR THE PREPARATION OF STYRENE AND/OR A SUBSTITUTED STYRENE GC0005888 2017/07/10 HTML
111 GC 2011-20150 PROCESS FOR COATING A THREADED TUBULAR COMPONENT, THREADED TUBULAR COMPONENT AND RESULTING CONNECTION GC0005889 2017/07/10 HTML
112 م ت خ/ب/2006/6017 PROCESSES FOR PRODUCING HIGH DENSITY POLYETHYLENE GC0005890 2017/07/11 HTML
113 م ت خ/ب/2008/20624 DEVICE FOR THE MEDICAL CARE OF A PATIENT IN AN EMERGENCY GC0005891 2017/07/11 HTML
114 م ت خ/ب/2008/10157 METHOD FOR DETERMING VOLUME OF ORGANIC MATTER IN RESERVOIR ROCK GC0005892 2017/07/11 HTML
115 م ت خ/ب/2008/11801 TRANSPARENT COMPOSITIONS BASED ON HIGH-IMPACT VINYL ARO-MATIC COPOLYMERS GC0005893 2017/07/11 HTML
116 GC 2013-24718 METHOD AND APPARATUS FOR FORMATION TESTER DATA INTERPRETATION WITH DIVERSE FLOW MODELS GC0005894 2017/07/11 HTML
117 م ت خ/ب/2008/26023 METHODS AND APPARATUS TO MONITOR DIAPHRAGM CONDITION GC0005895 2017/07/11 HTML
118 GC 2013-24203 METHODS AND DEVICES FOR CASING AND CEMENTING A WELLBORE GC0005896 2017/07/11 HTML
119 GC 2012-21002 PLUGGING THIEF ZONES AND FRACTURES BY IN-SITU AND IN-DEPTH CRYSTALLIZATION FOR IMPROVING WATER SWEEP EFFICIENCY OF SANDSTONE AND CARBONATE RESERVOIRS GC0005897 2017/07/11 HTML
120 GC 2011-18184 PROCESSING AND GEOSTEERING WITH A ROTATING TOOL GC0005898 2017/07/11 HTML
121 GC 2013-23810 INPUT PARSING AND ARRAY MANIPULATION IN RESERVOIR SIMULATION GC0005899 2017/07/11 HTML
122 م ت خ/ب/2009/12971 A METHOD AND AN APPARATUS FOR DOWNHOLE INJECTING ONE OR MORE TREATMENT FLUIDS. GC0005900 2017/07/11 HTML
123 GC 2013-23348 SEALING FLUID FOR SETTING A PACKER GC0005901 2017/07/11 HTML
124 GC 2010-16963 SYSTEM, METHOD, AND PROGRAM PRODUCT FOR SYNTHESIZING NON-CONSTRAINED AND CONSTRAINED HEAT EXCHANGER NETWORKS GC0005902 2017/07/11 HTML
125 GC 2013-24752 WEARING ARTICLE GC0005903 2017/07/11 HTML
126 م ت خ/ب/2008/10533 SYSTEMS AND METHODS FOR LIQUID SEPARATION GC0005904 2017/07/11 HTML
127 GC 2012-22133 PROCESS FOR THE PRODUCTION OF BALLAST GC0005905 2017/07/11 HTML
128 GC 2013-24951 CAPILLARY ELECTROPHORESIS FOR RESERVOIR FLUID ANALYSIS AT WELLSITE AND LABORATORY GC0005906 2017/07/11 HTML
129 م ت خ/ب/2008/10854 PASIREOTIDE FORMULATION GC0005907 2017/07/11 HTML
130 م ت خ/ب/2008/10199 PREMIXING-LESS POROUS HYDROGEN BURNER GC0005908 2017/07/11 HTML
131 م ت خ/ب/2005/4293 NEW PROCESS FOR THE SYNTHESIS AND NEW CRYSTALLINE FORM OF AGOMELATINE AND PHARMACEUTICAL COMPOSITIONS CONTAINING IT GC0005909 2017/07/12 HTML
132 GC 2012-22899 ABSORBENT ARTICLE GC0005910 2017/07/12 HTML
133 GC 2013-24242 ORAL FORMULATION GC0005911 2017/07/12 HTML
134 م ت خ/ب/2009/14467 PROCESS FOR PRODUCING 2-HYDROXY-4-METHYLTHIOBUTANOIC ACID GC0005912 2017/07/12 HTML
135 GC 2010-17075 PROCESS FOR THE PREPARATION OF PHENOL FROM CUMENE GC0005913 2017/07/12 HTML
136 GC 2012-21011 FAIL SAFE RETAINING PLUG ASSEMBLY FOR A SLAM-SHUT SAFETY DEVICE GC0005914 2017/07/12 HTML
137 GC 2012-21161 METHOD AND DEVICE FOR DETECTING CONGESTION ON A TRANSMISSION LINK GC0005915 2017/07/12 HTML
138 GC 2013-23577 PYRAZOLOPYRIMIDINYL INHIBITORS OF UBIQUITIN-ACTIVATING ENZYME GC0005916 2017/07/12 HTML
139 GC 2013-23900 NEW PROCESS FOR THE SYNTHESIS OF IVABRADINE AND ADDITION SALTS THEREOF WITH A PHARMACEUTICALLY ACCEPTABLE ACID GC0005917 2017/07/12 HTML
140 GC 2011-17910 HIGH QUALITY MIDDLE DISTILLATE PRODUCTION PROCESS GC0005918 2017/07/12 HTML
141 GC 2012-22145 COOLING SYSTEM FOR AN AIR CONDITIONER CONTROL BOX AND AIR ‎CONDITIONER INCORPORATED WITH THE SAME GC0005919 2017/07/12 HTML
142 م ت خ/ب/2007/8776 PROCESS FOR THE TOTAL CONVERSION OF HEAVY FEEDSTOCKS TO GC0005920 2017/07/12 HTML
143 GC 2010-16023 PHARMACEUTICAL DOSAGE FORM FOR ORAL ADMINISTRATION OF A BCL 2 FAMILY INHIBITOR GC0005921 2017/07/12 HTML
144 GC 2011-18882 PROCESS FOR PREPARING 3-METHYLTHIO PROPANAL GC0005922 2017/07/12 HTML
145 GC 2012-21080 FURNACE COILWITH PROTUBERANCES ON THE EXTERNAL SURFACE GC0005923 2017/07/12 HTML
146 GC 2013-23547 THERMOELECTRIC GENERATION APPARATUS GC0005924 2017/07/12 HTML
147 GC 2013-23884 INFLATABLE COLLAR AND DOWNHOLE METHOD FOR MOVING A COILED TUBING STRING GC0005925 2017/07/12 HTML
148 GC 2013-24335 UREA GRANULATION PROCESS WITH SCRUBBING SYSTEM GC0005926 2017/07/12 HTML
149 GC 2013-25190 ELEVATOR DOOR SYSTEM GC0005927 2017/07/12 HTML
150 GC 2013-24560 PULL THROUGH CENTRALIZER GC0005928 2017/07/16 HTML
151 GC 2013-24132 SYSTEM AND METHOD OF DETERMINING A VALUE INDICATIVE OF HYDROGEN INDEX GC0005929 2017/07/16 HTML
152 GC 2013-24529 CARBOXAMIDE OR SULFONAMIDE SUBSTITUTED NITROGEN-CONTAINING 5-MEMBERED HETEROCYCLES AS MODULATORS FOR THE ORPHAN NUCLEAR RECEPTOR ROR GC0005930 2017/07/16 HTML
153 م ت خ/ب/2008/10578 PROCESS FOR THE PREPARATION OF A TREATED MINERAL FILLER PRODUCT, THE OBTAINED MINERAL FILLER PRODUCT AND ITS USES GC0005931 2017/07/16 HTML
154 GC 2013-23285 METHOD AND ARRANGEMENT FOR PRODUCING A TRENCH WALL ELEMENT GC0005932 2017/07/16 HTML
155 GC 2012-21259 PYRROLIDINYL UREA AND PYRROLIDINYL THIOUREA COMPOUNDS AS TRKA INHIBITORS GC0005933 2017/07/16 HTML
156 GC 2013-23714 TOTAL INTERNAL REFLECTION LASER TOOLS AND METHODS GC0005934 2017/07/16 HTML
157 GC 2012-23132 METHOD FOR ENERGY RECOVERY FROM WASTE CONTAINING ORGANIC MATTER GC0005935 2017/07/16 HTML
158 GC 2012-23226 APPARATUS AND METHOD FOR STORING CORE SAMPLES AT HIGH PRESSURE GC0005936 2017/07/16 HTML
159 GC 2012-20433 IMPROVING TEREPHTHALIC ACID PURGE FILTRATION RATE BY CONTROLLING % WATER IN FILTER FEED SLURRY GC0005937 2017/07/16 HTML
160 GC 2012-21270 INTERVENTIONLESS SET PACKER AND SETTING METHOD FOR SAME GC0005938 2017/07/16 HTML
161 GC 2013-25845 APPARATUS, SYSTEM AND METHOD FOR CIRCUMFERENTIALLY ORIENTING A DOWNHOLE LATCH SUBSYSTEM GC0005939 2017/07/16 HTML
162 GC 2013-25135 SYSTEM AND METHOD FOR DELIVERY OF OILFIELD MATERIALS GC0005940 2017/07/16 HTML
163 م ت خ/ب/2007/8785 SMAC PEPTIDOMIMETICS USEFUL AS IAP INHIBITORS GC0005941 2017/07/16 HTML
164 م ت خ/ب/2008/11727 SYSTEM AND METHOD FOR OBTAINING LOAD MEASUREMENTS IN A WELLBORE GC0005942 2017/07/16 HTML
165 GC 2013-24348 PROCESS FOR THE PREPARATION OF BRANCHED POLYBUTADIENE HAVING A HIGH CONTENT OF 1,4-CIS UNITS GC0005943 2017/07/16 HTML
166 GC 2013-24717 REACTOR AND PROCESS FOR PREPARING HYDROGEN SULPHIDE GC0005944 2017/07/16 HTML
167 GC 2012-21294 GRID RUNNER CAP ANCHORING LANCE GC0005945 2017/07/16 HTML
168 GC 2010-17306 METHOD FOR DETERMINING CHARACTERISTICS OF TUBING DEPLOYED IN A WELLBORE GC0005946 2017/07/16 HTML
169 GC 2013-23780 A METHOD AND APPARATUS FOR MIXING, TRANSPORTING, STORING, AND TRANSFERRING THIXOTROPIC FLUIDS IN ONE CONTAINER GC0005947 2017/07/16 HTML
170 GC 2012-21272 VERIFICATION OF SWELLING IN A WELL GC0005948 2017/07/16 HTML
171 GC 2010-16349 DEVICE FOR THE COLLECTION OF THE GASES EMITTED BY ALUMINIUM ELECTROLYTIC CELLS, AND ASSOCIATED ALUMINIUM PRODUCTION SYSTEM GC0005949 2017/07/16 HTML
172 م ت خ/ب/2007/8907 METHOD AND APPARATUS FOR LIQUEFYING A HYDROCARBON-CONTAINING FEED STREAM GC0005950 2017/07/16 HTML
173 GC 2011-19360 METHODS AND APPARATUS FOR ENHANCED GAS DISTRIBUTION GC0005951 2017/07/16 HTML
174 GC 2013-24436 IMPROVED CATALYST AND PROCESS FOR HYDROCONVERSION OF A HEAVY FEEDSTOCK GC0005952 2017/07/16 HTML
175 GC 2012-21630 FLOW CONTROL SCREEN ASSEMBLY HAVING REMOTELY DISABLED REVERSE FLOW CONTROL CAPABILITY GC0005953 2017/07/16 HTML
176 GC 2013-25976 CEMENTING COMPOSITION COMPRISING NONIONIC HYDROPHOBICALLY MODIFIED CELLULOSE ETHERS AND ITS USE GC0005954 2017/07/17 HTML
177 م ت خ/ب/2006/6923 ALUMINUM/ALKALINE OR ALKALI/TITANIUM CONTAINING POLYESTERS HAVING IMPROVED REHEAT, COLOR AND CLARITY GC0005955 2017/07/17 HTML
178 GC 2011-18518 ADVANCED OXIDATION OF KINETIC HYDRATE INHIBITORS GC0005956 2017/07/17 HTML
179 GC 2013-24263 ACCESSORY DEVICE ASSEMBLY FOR LOW AND MEDIUM VOLTAGE SWITCHING DEVICES GC0005957 2017/07/18 HTML
180 GC 2012-23169 ISLAMIC PRAYER AND PEDOMETER WATCH GC0005958 2017/07/18 HTML
181 م ت خ/ب/2005/4912 PROCESS FOR PREPARING MONOMERS AND POLYMERS THEREOF GC0005959 2017/07/18 HTML
182 GC 2012-21956 EXTERNALLY ADJUSTABLE INFLOW CONTROL DEVICE GC0005960 2017/07/18 HTML
183 GC 2011-19938 PRECODING METHOD AND TRANSMISSION APPARATUS GC0005961 2017/07/19 HTML
184 م ت خ/ب/2008/11713 TREATMENT OF SPENT CAUSTIC WASTE GC0005962 2017/07/19 HTML
185 GC 2012-22211 ACTIVE ASSISTANCE LOWER LIMB MOBILIZATION DEVICE GC0005963 2017/07/19 HTML
186 GC 2012-20407 PARTIALLY RETRIEVABLE SAFETY VALVE GC0005964 2017/07/23 HTML
187 GC 2011-19265 UPGRADING OF HYDROCARBONS BY HYDROTHERMAL PROCESS GC0005965 2017/07/23 HTML
188 GC 2011-19625 MULTI-STAGE FLASH EVAPORATOR GC0005966 2017/07/23 HTML
189 GC 2012-20217 SYSTEMS, PROGRAM PRODUCT AND METHODS FOR PERFORMING A RISK ASSESSMENT WORKFLOW PROCESS FOR PLANT NETWORKS AND SYSTEMS GC0005967 2017/07/24 HTML
190 GC 2012-21842 IMPROVED PROCESS DEVELOPMENT BY PARALLEL OPERATION OF PARAFFIN ISOMERIZATION UNIT WITH REFORMER GC0005968 2017/07/24 HTML
191 GC 2011-19078 METHOD AND DEVICE FOR INSPECTING A THREADING OF A TUBULAR CONNECTION USED IN THE OIL INDUSTRY GC0005969 2017/07/24 HTML
192 GC 2012-20764 SLIDING STAGE CEMENTING TOOL GC0005970 2017/07/24 HTML
193 GC 2011-18906 MACHINES, COMPUTER PROGRAM PRODUCTS, AND COMPUTER-IMPLEMENTED METHODS PROVIDING AN INTEGRATED NODE FOR DATA ACQUISITION AND CONTROL GC0005971 2017/07/24 HTML
194 GC 2012-20582 DEVICE FOR MANUFACTURING A FOUNDATION FOR A MASS LOCATED AT HEIGHT, ASSOCIATED METHOD AND ASSEMBLY OF THE DEVICE AND A JACK-UP PLATFORM GC0005972 2017/07/24 HTML
195 م ت خ/ب/2008/11857 FUEL COMPOSITIONS GC0005973 2017/07/25 HTML
196 GC 2011-19425 APPARATUS AND METHOD FOR ULTRASONIC PROCESSING OF A FIBROUS WEB GC0005974 2017/07/25 HTML
197 GC 2010-16432 ULTRASONIC JOINING APPARATUS AND ABSORBENT ARTICLE MANUFACTURING APPARATUS GC0005975 2017/07/25 HTML
198 GC 2012-20669 DISPOSABLE DIAPER GC0005976 2017/07/25 HTML
199 م ت خ/ب/2009/12887 ABSORBENT ARTICLE GC0005977 2017/07/26 HTML
200 GC 2012-20402 ABSORBENT STRUCTURE AND ABSORBENT WEARING ARTICLE USING THE SAME GC0005978 2017/07/26 HTML
201 GC 2013-23923 TURBOMACHINE COMBUSTOR ASSEMBLY GC0005979 2017/07/27 HTML
202 GC 2013-25372 SCREW JOINT FOR STEEL PIPE GC0005980 2017/07/27 HTML
203 GC 2011-18957 METHOD FOR PREPARING TABLETS CONTAINING IN COMBINATION RIFAMPICIN, ISONIAZID, PYRAZINAMIDE AND OPTIONALLY ETHAMBUTOL GC0005981 2017/07/27 HTML
204 م ت خ/ب/2009/14439 PROCESS FOR PRODUCING LIQUID AND GASEOUS NITROGEN STREAMS, A GASEOUS STREAM WHICH IS RICH IN HELIUM AND A DENITRIDED STREAM OF HYDROCARBONS AND ASSOCIATED INSTALLATION GC0005982 2017/07/30 HTML
205 م ت خ/ب/2004/4090 3-CYANO-QUINOLINE DERIVATIVES WITH ANTIPROLIFERATIVE ACTIVITY GC0005983 2017/07/31 HTML
206 GC 2013-24785 WASTEWATER TREATMENT METHOD AND WASTEWATER TREATMENT APPARATUS GC0005984 2017/07/31 HTML
207 GC 2013-24037 FAULT PROTECTION SYSTEM FOR A POWER SYSTEM OF DYNAMICALLY POSITIONED VESSEL GC0005985 2017/07/31 HTML
208 GC 2013-25307 METHOD OF FORMING ZEOLITE SHAPED BODY WITH SILICA BINDER GC0005986 2017/07/31 HTML
209 GC 2013-25806 TRIPLE PHASE EVALUATION OF FORMATION FLUIDS GC0005987 2017/07/31 HTML
210 GC 2013-25958 SYSTEMS AND METHODS FOR REAL TIME MONITORING OF GAS HYDRATE FORMATION GC0005988 2017/07/31 HTML
211 GC 2013-26009 METHOD OF CARRYING OUT HEAT-CONSUMING PROCESSES GC0005989 2017/07/31 HTML
212 GC 2013-26038 POLYMERISATION OF ETHYLENE IN THE PRESENCE OF A SILYLCHROMATE BASED CATALYST GC0005990 2017/07/31 HTML
213 GC 2013-26176 FORMATION IMAGING WITH MULTI-POLE ANTENNAS GC0005991 2017/07/31 HTML
214 GC 2014-26430 DOWNHOLE ROTATIONAL LOCK MECHANISM GC0005992 2017/07/31 HTML
215 GC 2011-29895 RECONSTRUCTING DEAD OIL GC0005993 2017/07/31 HTML
216 GC 2014-27362 OXYGEN BARRIER FILM FOR PIPE GC0005994 2017/07/31 HTML
217 GC 2012-22684 MULTI-ARRAY LATEROLOG TOOLS AND METHODS WITH SPLIT MONITOR ELECTRODES GC0005995 2017/07/31 HTML
218 GC 2013-25004 PROCESS FOR THE PREPARATION OF ISOBUTYLIDENE DIUREA GC0005996 2017/07/31 HTML
219 GC 2013-25444 PROCESS FOR OLIGOMERIZATION OF ETHYLENE GC0005997 2017/07/31 HTML
220 GC 2013-25940 PROCESS FOR THE OXIDATIVE DEHYDROGENATION OF N-BUTENES TO BUTADIENE GC0005998 2017/07/31 HTML
221 GC 2013-26035 PROCESS FOR UTILIZING COPRODUCT GASES, ACCOMPANYING GASES AND/OR BIOGASES GC0005999 2017/07/31 HTML
222 GC 2013-26071 MANUFACTURE OF DIHYDROXY AROMATIC COMPOUNDS BY ALCOHOLYSIS OF FLAME RETARDANT-CONTAINING POLYCARBONATE COMPOSITIONS GC0006000 2017/07/31 HTML
223 GC 2014-26233 PROCESS FOR PREPARING ACETYLENE AND SYNTHESIS GAS GC0006001 2017/07/31 HTML
224 GC 2014-26936 ACOUSTIC RECEIVER ASSEMBLY FOR DOWNHOLE TOOLS GC0006002 2017/07/31 HTML
225 GC 2014-27451 DOWNHOLE POWER DELIVERY TOOL POWERED BY HYDROSTATIC PRESSURE GC0006003 2017/07/31 HTML
226 GC 2013-31467 PROCESS FOR THE PREPARATION OF RACEMIC ?-AMINO ACIDS GC0006004 2017/07/31 HTML





 





All Rights Are Saved